Vlan Edition Locale

LE CHALLENGE DU BRABANT WALLON

19 courses réparties sport05.gif (4991 octets) ... dans tout le Brabant Wallon

Antipode TV COM
CHALLENGERS Inscrits au Challenge

Liste de vos courses sur le Challenge
Liste des courses d'un joggeur

MESSAGE:
Un coureur ne trouve plus ses chaussures après la course de Sart-Risbart. Elles étaient placées dans un petit sac noir. Si vous avez des informations, contactez-nous.

SART-RISBART 20KM100

Classement Général -Club

Classement Général


Nombre de visites : 0

  Nom Prenom Club Categorie Temps
1 VELOSO FRANCISCO CEPAL M/40-49/1 1:18:57
2 IWENS ALAIN HOOIBERGLOPERS M/40-49/2 1:22:52
3 LENGELE SEBASTIEN CEPAL M/30-39/1 1:24:53
4 HANOT SERGE RONVAU M/40-49/3 1:25:48
5 COLLAER CHRISTOPHE RCB M/20-29/1 1:28:45
6 LELIEVRE THIERRY   M/30-39/2 1:29:20
7 LEVACQ GUY LDLV M/60-69/1 1:34:43
8 HUME YVAN NAC M/50-59/1 1:35:18
9 BUIS QUENTIN RONVAU M/20-29/2 1:36:48
10 LIBERT DANIEL ANTILOB M/40-49/4 1:36:56
11 VERBESSELT KEVIN   M/30-39/3 1:36:59
12 HAULAIT SANDRA CEPAL D/30-39/1 1:37:23
13 DEBLANDER BRUNO   M/50-59/2 1:38:14
14 BINKERT MARC LDLV M/50-59/3 1:38:35
15 DEBRUYN THIERRY JAMES M/40-49/5 1:38:53
16 PUTZEYS MATHIEU   M/30-39/4 1:39:01
17 MICHOTTE MARC KURISTO M/50-59/4 1:39:22
18 SERCKX THOMAS   M/30-39/5 1:39:43
19 COLMANT OLIVIER   M/50-59/5 1:39:47
20 TRUPIA FILIPPO   M/50-59/6 1:41:10
21 CEULEMANS NICOLAS ANTILOB M/40-49/6 1:43:13
22 UCAKAR BERNARD   M/30-39/6 1:44:50
23 RADDOUX HUGO HWJ HOEGARDEN M/50-59/7 1:45:43
24 VAN DESSEL JEAN-PAUL JAMES M/40-49/7 1:46:03
25 LECLERC ROMAIN RIWA M/30-39/7 1:47:22
26 COLMANT AURELIEN   M/20-29/3 1:47:27
27 BELANGE LAURENT ANTILOB M/30-39/8 1:47:29
28 GREVISSE DAVID RONVAU M/30-39/9 1:48:04
29 POT GERARD   M/50-59/8 1:48:08
30 KUYPERS EDDY JAMES M/50-59/9 1:48:17
31 MASSONET PHILIPPE BELGRAVE M/40-49/8 1:49:00
32 VERBEEK JEAN-LUC   M/50-59/10 1:49:34
33 VALCKE ALAIN   M/40-49/9 1:50:11
34 MARCHAL CHARLES   M/20-29/4 1:50:48
35 BAIKRICH GUY RCB M/60-69/2 1:51:06
36 CHABEAU VINCIANNE ANTILOB D/50-59/1 1:52:47
37 FONTAINE BERNARD KURISTO M/40-49/10 1:54:12
38 POULAIN ROLAND RONVAU M/60-69/3 1:54:38
39 LIENARD JEAN-MARC   M/50-59/11 1:54:44
40 LOUINEAU OLIVIER   M/30-39/10 1:56:02
41 VERHEIRSTRAETEN JACQUES JET M/50-59/12 1:56:16
42 GUILLERM DAVID   M/30-39/11 1:57:05
43 OLIVIER CLAUDE   M/40-49/11 1:57:08
44 ROZENBLAT STEPHANE NAC M/40-49/12 1:57:33
45 BARBIER LAURENT   M/40-49/13 1:58:17
46 KEFFI JAMEL   M/40-49/14 2:00:33
47 CAPPUYNS ALAIN RIWA M/50-59/13 2:00:54
48 CAMACHO PATRICK LDLV M/50-59/14 2:01:16
49 HEYMANS STEPHANE   M/40-49/15 2:01:21
50 DE WINTER HILDE   D/40-49/1 2:02:57
51 SESTITO JOSEPH   M/40-49/16 2:04:23
52 DEWIGNE BERNARD CS DYL.G M/50-59/15 2:04:24
53 BISCOS DAVID   M/30-39/12 2:06:17
54 GHERAILLE JEAN-MARC   M/40-49/17 2:06:48
55 ERAERTS WILLY USBW ROAD TEAM M/70 &+/1 2:07:49
56 DOUTRELIGNE HERVE RIWA M/50-59/16 2:09:46
57 VANDEN DRIESCH FRANCOIS DACM M/40-49/18 2:10:34
58 SOREL PAUL   M/50-59/17 2:12:18
59 LECUIVRE MICHAEL   M/20-29/5 2:12:37
60 TREHAN LUC   M/50-59/18 2:13:14
61 JORDENS RENE   M/50-59/19 2:14:19
62 VANACKERE CHRISTINE ANTILOB D/40-49/2 2:18:26
63 SIMONS BENOIT PARA CL M/60-69/4 2:21:28
64 ARGACHA JEAN-FRANCOIS   M/30-39/13 2:22:04
65 WAUCAMPT REGGIE ANTILOB M/60-69/5 2:26:37
66 LERIBAUX MARIE-ROSE BIN D/60 &+/1 2:31:37
67 RODEN BILLY OTAN M/60-69/6 2:34:55


CLUB

CLUBS LES MIEUX REPRESENTES

1 ANTILOB 6

INTEREQUIPE
1 ANTILOB 156